createdAt,value
2017-05-06T00:02:25.874Z,1011.38
2017-05-06T00:07:21.671Z,1011.31
2017-05-06T00:12:17.271Z,1011.29
2017-05-06T00:17:12.873Z,1011.19
2017-05-06T00:22:08.818Z,1011.11
2017-05-06T00:27:04.813Z,1011.03
2017-05-06T00:32:00.315Z,1010.99
2017-05-06T00:36:55.910Z,1011.02
2017-05-06T00:41:51.503Z,1010.90
2017-05-06T00:46:47.903Z,1010.82
2017-05-06T00:51:43.313Z,1010.78
2017-05-06T00:56:39.041Z,1010.74
2017-05-06T01:01:34.783Z,1010.71
2017-05-06T01:06:30.612Z,1010.71
2017-05-06T01:11:26.340Z,1010.75
2017-05-06T01:16:22.109Z,1010.78
2017-05-06T01:21:17.929Z,1010.66
2017-05-06T01:26:13.636Z,1010.63
2017-05-06T01:31:09.276Z,1010.62
2017-05-06T01:36:05.363Z,1010.56
2017-05-06T01:41:00.926Z,1010.40
2017-05-06T01:45:56.862Z,1010.29
2017-05-06T01:50:52.054Z,1010.31
2017-05-06T01:55:47.865Z,1010.31
2017-05-06T02:00:44.079Z,1010.22
2017-05-06T02:05:40.638Z,1010.08
2017-05-06T02:10:36.174Z,1010.11
2017-05-06T02:15:31.796Z,1010.05
2017-05-06T02:20:27.669Z,1009.97
2017-05-06T02:25:23.566Z,1009.88
2017-05-06T02:30:18.858Z,1009.86
2017-05-06T02:35:14.609Z,1009.84
2017-05-06T02:40:10.265Z,1009.73
2017-05-06T02:45:06.963Z,1009.72
2017-05-06T02:50:02.551Z,1009.84
2017-05-06T02:54:58.171Z,1009.81
2017-05-06T02:59:53.910Z,1009.82
2017-05-06T03:04:50.013Z,1009.87
2017-05-06T03:09:45.546Z,1009.76
2017-05-06T03:14:41.202Z,1009.86
2017-05-06T03:19:36.905Z,1009.73
2017-05-06T03:24:32.767Z,1009.76
2017-05-06T03:29:28.503Z,1009.71
2017-05-06T03:34:24.040Z,1009.67
2017-05-06T03:39:19.696Z,1009.74
2017-05-06T03:44:15.341Z,1009.68
2017-05-06T03:49:10.827Z,1009.58
2017-05-06T03:54:06.648Z,1009.56
2017-05-06T03:59:02.405Z,1009.55
2017-05-06T04:03:58.247Z,1009.58
2017-05-06T04:08:53.880Z,1009.58
2017-05-06T04:13:49.596Z,1009.72
2017-05-06T04:18:45.256Z,1009.71
2017-05-06T04:23:41.279Z,1009.73
2017-05-06T04:28:36.869Z,1009.77
2017-05-06T04:33:32.569Z,1009.57
2017-05-06T04:38:28.450Z,1009.67
2017-05-06T04:43:24.051Z,1009.74
2017-05-06T04:48:19.888Z,1009.63
2017-05-06T04:53:15.681Z,1009.63
2017-05-06T04:58:12.080Z,1009.49
2017-05-06T05:03:07.850Z,1009.57
2017-05-06T05:08:03.458Z,1009.67
2017-05-06T05:12:59.372Z,1009.50
2017-05-06T05:17:55.073Z,1009.54
2017-05-06T05:22:51.083Z,1009.52
2017-05-06T05:27:46.887Z,1009.45
2017-05-06T05:32:43.235Z,1009.43
2017-05-06T05:37:39.009Z,1009.37
2017-05-06T05:42:35.188Z,1009.29
2017-05-06T05:47:31.586Z,1009.23
2017-05-06T05:52:27.308Z,1009.22
2017-05-06T05:57:22.906Z,1009.22
2017-05-06T06:02:18.843Z,1009.12
2017-05-06T06:07:14.786Z,1009.02
2017-05-06T06:12:11.283Z,1009.03
2017-05-06T06:17:07.368Z,1009.07
2017-05-06T06:22:04.580Z,1009.06
2017-05-06T06:27:00.179Z,1008.93
2017-05-06T06:31:56.306Z,1009.04
2017-05-06T06:36:52.186Z,1009.05
2017-05-06T06:41:47.724Z,1009.03
2017-05-06T06:46:43.759Z,1009.02
2017-05-06T06:51:40.598Z,1009.03
2017-05-06T06:56:36.458Z,1009.10
2017-05-06T07:01:32.428Z,1008.94
2017-05-06T07:06:28.238Z,1008.95
2017-05-06T07:11:24.539Z,1008.83
2017-05-06T07:16:20.166Z,1008.75
2017-05-06T07:21:17.182Z,1008.77
2017-05-06T07:26:12.507Z,1008.69
2017-05-06T07:31:08.641Z,1008.59
2017-05-06T07:36:04.725Z,1008.60
2017-05-06T07:41:00.745Z,1008.54
2017-05-06T07:45:56.783Z,1008.61
2017-05-06T07:50:53.419Z,1008.36
2017-05-06T07:55:50.045Z,1008.42
2017-05-06T08:00:46.905Z,1008.36
2017-05-06T08:05:42.350Z,1008.33
2017-05-06T08:10:38.526Z,1008.29
2017-05-06T08:15:34.032Z,1008.30
2017-05-06T08:20:31.844Z,1008.25
2017-05-06T08:25:29.256Z,1008.13
2017-05-06T08:30:24.603Z,1008.22
2017-05-06T08:35:22.691Z,1008.20
2017-05-06T08:40:21.483Z,1008.08
2017-05-06T08:45:18.112Z,1007.96
2017-05-06T08:50:14.065Z,1007.92
2017-05-06T08:55:07.902Z,1007.75
2017-05-06T09:00:01.905Z,1007.83
2017-05-06T09:05:01.407Z,1007.78
2017-05-06T09:09:55.909Z,1007.71
2017-05-06T09:14:52.848Z,1007.67
2017-05-06T09:19:49.723Z,1007.73
2017-05-06T09:24:47.200Z,1007.61
2017-05-06T09:29:44.764Z,1007.53
2017-05-06T09:34:42.418Z,1007.50
2017-05-06T09:39:39.139Z,1007.43
2017-05-06T09:44:39.457Z,1007.37
2017-05-06T09:49:34.557Z,1007.42
2017-05-06T09:54:31.032Z,1007.22
2017-05-06T09:59:27.518Z,1007.22
2017-05-06T10:04:23.473Z,1007.08
2017-05-06T10:09:21.670Z,1007.05
2017-05-06T10:14:17.360Z,1007.01
2017-05-06T10:19:17.910Z,1006.86
2017-05-06T10:24:12.185Z,1006.71
2017-05-06T10:29:08.481Z,1006.56
2017-05-06T10:34:04.017Z,1006.37
2017-05-06T10:39:00.402Z,1006.45
2017-05-06T10:43:55.551Z,1006.56
2017-05-06T10:48:53.482Z,1006.41
2017-05-06T10:53:52.996Z,1006.35
2017-05-06T10:58:49.602Z,1006.14
2017-05-06T11:03:46.735Z,1006.09
2017-05-06T11:08:43.316Z,1006.01
2017-05-06T11:13:37.199Z,1006.06
2017-05-06T11:23:35.627Z,1005.89
2017-05-06T11:28:32.253Z,1005.87
2017-05-06T11:33:26.531Z,1005.84
2017-05-06T11:38:22.839Z,1005.64
2017-05-06T11:43:19.354Z,1005.54
2017-05-06T11:48:11.424Z,1005.64
2017-05-06T11:53:10.844Z,1005.53
2017-05-06T11:58:03.080Z,1005.44
2017-05-06T12:07:58.333Z,1005.39
2017-05-06T12:12:57.512Z,1005.33
2017-05-06T12:17:55.255Z,1005.18
2017-05-06T12:22:48.999Z,1005.17
2017-05-06T12:27:47.419Z,1005.17
2017-05-06T12:32:43.730Z,1005.25
2017-05-06T12:37:36.558Z,1005.17
2017-05-06T12:42:34.104Z,1004.99
2017-05-06T12:47:28.692Z,1004.95
2017-05-06T12:52:25.496Z,1004.98
2017-05-06T12:57:22.923Z,1004.87
2017-05-06T13:02:19.528Z,1004.97
2017-05-06T13:07:15.010Z,1004.93
2017-05-06T13:12:12.090Z,1004.78
2017-05-06T13:17:07.543Z,1004.78
2017-05-06T13:22:05.599Z,1004.72
2017-05-06T13:27:01.922Z,1004.62
2017-05-06T13:32:01.841Z,1004.57
2017-05-06T13:36:55.273Z,1004.52
2017-05-06T13:41:50.023Z,1004.51
2017-05-06T13:46:47.281Z,1004.56
2017-05-06T13:51:42.327Z,1004.42
2017-05-06T13:56:38.818Z,1004.28
2017-05-06T14:01:34.507Z,1004.17
2017-05-06T14:06:29.900Z,1004.13
2017-05-06T14:11:26.009Z,1004.17
2017-05-06T14:16:21.894Z,1004.19
2017-05-06T14:21:18.068Z,1004.17
2017-05-06T14:26:13.990Z,1004.03
2017-05-06T14:31:09.654Z,1003.98
2017-05-06T14:36:04.995Z,1003.97
2017-05-06T14:41:00.753Z,1004.09
2017-05-06T14:45:56.403Z,1003.93
2017-05-06T14:50:52.156Z,1004.07
2017-05-06T14:55:49.269Z,1004.08
2017-05-06T15:00:45.929Z,1004.07
2017-05-06T15:05:41.298Z,1004.12
2017-05-06T15:10:36.623Z,1004.08
2017-05-06T15:15:32.761Z,1003.98
2017-05-06T15:20:28.836Z,1004.11
2017-05-06T15:25:24.551Z,1004.02
2017-05-06T15:30:21.904Z,1003.98
2017-05-06T15:35:17.525Z,1003.98
2017-05-06T15:40:13.372Z,1004.01
2017-05-06T15:45:09.156Z,1004.04
2017-05-06T15:50:05.399Z,1004.01
2017-05-06T15:55:01.380Z,1004.06
2017-05-06T15:59:57.749Z,1004.00
2017-05-06T16:04:53.539Z,1003.99
2017-05-06T16:09:50.884Z,1003.92
2017-05-06T16:14:47.179Z,1003.87
2017-05-06T16:19:42.914Z,1003.86
2017-05-06T16:24:39.239Z,1003.75
2017-05-06T16:29:35.153Z,1003.80
2017-05-06T16:34:30.965Z,1003.80
2017-05-06T16:39:26.595Z,1003.81
2017-05-06T16:44:22.246Z,1003.91
2017-05-06T16:49:25.478Z,1003.83
2017-05-06T16:54:19.324Z,1003.86
2017-05-06T16:59:16.035Z,1003.89
2017-05-06T17:04:11.452Z,1003.84
2017-05-06T17:09:07.348Z,1003.71
2017-05-06T17:14:04.365Z,1003.82
2017-05-06T17:18:59.675Z,1003.73
2017-05-06T17:23:55.640Z,1003.80
2017-05-06T17:28:52.605Z,1003.77
2017-05-06T17:33:48.265Z,1003.72
2017-05-06T17:38:43.784Z,1003.78
2017-05-06T17:43:39.340Z,1003.69
2017-05-06T17:48:35.732Z,1003.70
2017-05-06T17:53:31.520Z,1003.68
2017-05-06T17:58:27.520Z,1003.78
2017-05-06T18:03:23.173Z,1003.72
2017-05-06T18:08:19.085Z,1003.77
2017-05-06T18:13:14.994Z,1003.88
2017-05-06T18:18:10.669Z,1003.86
2017-05-06T18:23:06.853Z,1003.87
2017-05-06T18:28:02.697Z,1003.82
2017-05-06T18:32:59.548Z,1003.80
2017-05-06T18:37:54.743Z,1003.83
2017-05-06T18:42:50.559Z,1003.80
2017-05-06T18:47:47.579Z,1003.85
2017-05-06T18:52:42.702Z,1003.94
2017-05-06T18:57:38.263Z,1003.88
2017-05-06T19:02:34.595Z,1003.89
2017-05-06T19:07:32.539Z,1003.99
2017-05-06T19:12:28.297Z,1004.03
2017-05-06T19:17:23.991Z,1004.05
2017-05-06T19:22:20.242Z,1004.10
2017-05-06T19:27:15.741Z,1004.09
2017-05-06T19:32:12.374Z,1004.07
2017-05-06T19:37:08.105Z,1004.09
2017-05-06T19:42:03.755Z,1004.22
2017-05-06T19:46:59.390Z,1004.24
2017-05-06T19:51:55.987Z,1004.24
2017-05-06T19:56:51.875Z,1004.21
2017-05-06T20:01:48.870Z,1004.24
2017-05-06T20:06:44.325Z,1004.25
2017-05-06T20:11:40.253Z,1004.24
2017-05-06T20:16:35.715Z,1004.25
2017-05-06T20:21:32.994Z,1004.30
2017-05-06T20:26:28.696Z,1004.27
2017-05-06T20:31:24.918Z,1004.29
2017-05-06T20:36:20.309Z,1004.34
2017-05-06T20:41:16.620Z,1004.30
2017-05-06T20:46:13.478Z,1004.43
2017-05-06T20:51:09.651Z,1004.27
2017-05-06T20:56:06.240Z,1004.39
2017-05-06T21:01:05.192Z,1004.42
2017-05-06T21:06:00.185Z,1004.45
2017-05-06T21:10:56.031Z,1004.51
2017-05-06T21:15:52.164Z,1004.50
2017-05-06T21:20:47.585Z,1004.44
2017-05-06T21:25:44.200Z,1004.51
2017-05-06T21:30:40.103Z,1004.51
2017-05-06T21:35:42.749Z,1004.56
2017-05-06T21:40:37.468Z,1004.57
2017-05-06T21:45:34.067Z,1004.57
2017-05-06T21:50:29.776Z,1004.63
2017-05-06T21:55:26.372Z,1004.65
2017-05-06T22:00:21.826Z,1004.61
2017-05-06T22:05:18.458Z,1004.68
2017-05-06T22:10:13.910Z,1004.73
2017-05-06T22:15:10.372Z,1004.74
2017-05-06T22:20:05.702Z,1004.78
2017-05-06T22:25:01.718Z,1004.83
2017-05-06T22:29:57.530Z,1004.83
2017-05-06T22:34:55.665Z,1004.80
2017-05-06T22:39:50.706Z,1004.81
2017-05-06T22:44:47.365Z,1004.80
2017-05-06T22:49:45.975Z,1004.84
2017-05-06T22:54:41.727Z,1004.79
2017-05-06T22:59:38.457Z,1004.74
2017-05-06T23:04:33.772Z,1004.89
2017-05-06T23:09:29.824Z,1004.76
2017-05-06T23:14:26.649Z,1004.80
2017-05-06T23:19:22.331Z,1004.88
2017-05-06T23:24:18.519Z,1004.92
2017-05-06T23:29:15.244Z,1004.94
2017-05-06T23:34:11.298Z,1005.06
2017-05-06T23:39:07.064Z,1004.87
2017-05-06T23:44:03.405Z,1004.95
2017-05-06T23:48:59.368Z,1004.88
2017-05-06T23:53:55.032Z,1004.94
2017-05-06T23:58:51.006Z,1004.94
